Macks Creek, Missouri
Current Conditions -  °F | °C
As of 2:55 AM on Saturday 22 Nov 2014 (Local Time) from KH21 Reporting Station
Scattered Clouds Scattered Clouds  
Wind Chill:   Ceiling: Unl
Heat Index:   Visibility: 10mi
Dew Point:   Wind: 14mph
Humidity: 87%   Direction: 160°SSE
Pressure: 30.1"   Gusts: 18mph
Location:  37.97°N, 92.97°W
Report Text: KH21 220855Z AUTO 16012G16KT 10SM SCT029 SCT033 SCT065 09/07 A3010 RMK AO2
Loading
Personal Weather Stations






























Interactive Weather Map New forecast layout! Learn more

10-Day Weather Forecast

Advertisements
Track Severe Weather on mobile